La Playosa, Argentina
Current Conditions -  °F | °C
As of 7:00 PM on Monday 22 Dec 2014 (Local Time) from SACO Reporting Station
Scattered Clouds Scattered Clouds  
Wind Chill: 68°   Ceiling: Unl
Heat Index: 68°   Visibility: 6mi
Dew Point: 36°   Wind: 5mph
Humidity: 30%   Direction: 140°SE
Pressure: 30.21"   Gusts: NA
Location:  32.1°S, 63.03°W
Report Text: SACO 222200Z 14004KT 9999 SCT030 SCT10020/02 Q1023
Loading
Personal Weather Stations






























Interactive Weather Map New forecast layout! Learn more

10-Day Weather Forecast

Advertisements
Track Severe Weather on mobile